<?xml version='1.0' encoding='UTF-8'?><gpx version="1.1" creator="JPX - https://github.com/jenetics/jpx" xmlns="http://www.topografix.com/GPX/1/1"><trk><trkseg><trkpt lat="49.360460065351326" lon="2.189896601407461"><ele>141.2</ele><time>2026-05-04T16:13:39Z</time></trkpt><trkpt lat="49.36054307737937" lon="2.1897772063645613"><ele>141.39999999999998</ele><time>2026-05-04T16:13:41Z</time></trkpt><trkpt lat="49.36063557604648" lon="2.18963569011994"><ele>141.6</ele><time>2026-05-04T16:13:43Z</time></trkpt><trkpt lat="49.36068025414844" lon="2.189550130112249"><ele>141.79999999999998</ele><time>2026-05-04T16:13:44Z</time></trkpt><trkpt lat="49.36072690070256" lon="2.1894779157995226"><ele>142.0</ele><time>2026-05-04T16:13:45Z</time></trkpt><trkpt lat="49.36081223748468" lon="2.189344182996088"><ele>142.0</ele><time>2026-05-04T16:13:47Z</time></trkpt><trkpt lat="49.36089236152724" lon="2.189214666179619"><ele>142.0</ele><time>2026-05-04T16:13:49Z</time></trkpt><trkpt lat="49.36093523076234" lon="2.189125944607211"><ele>142.0</ele><time>2026-05-04T16:13:50Z</time></trkpt><trkpt lat="49.360989518489184" lon="2.189040547680621"><ele>142.0</ele><time>2026-05-04T16:13:51Z</time></trkpt><trkpt lat="49.361046370600505" lon="2.1889712717805936"><ele>142.0</ele><time>2026-05-04T16:13:52Z</time></trkpt><trkpt lat="49.36109601767114" lon="2.1888909351914982"><ele>142.0</ele><time>2026-05-04T16:13:53Z</time></trkpt><trkpt lat="49.361141054943474" lon="2.1888077533760324"><ele>142.4</ele><time>2026-05-04T16:13:54Z</time></trkpt><trkpt lat="49.361190028630475" lon="2.1886992315270737"><ele>142.79999999999998</ele><time>2026-05-04T16:13:55Z</time></trkpt><trkpt lat="49.36126779214345" lon="2.188614422317291"><ele>143.2</ele><time>2026-05-04T16:13:56Z</time></trkpt><trkpt lat="49.36134308142274" lon="2.1884786988040488"><ele>143.6</ele><time>2026-05-04T16:13:57Z</time></trkpt><trkpt lat="49.361410571847046" lon="2.1883649093001205"><ele>144.0</ele><time>2026-05-04T16:13:58Z</time></trkpt><trkpt lat="49.36148109859374" lon="2.1882527476050573"><ele>144.0</ele><time>2026-05-04T16:13:59Z</time></trkpt><trkpt lat="49.3615441527832" lon="2.1881495752564466"><ele>144.0</ele><time>2026-05-04T16:14:00Z</time></trkpt><trkpt lat="49.361596488864606" lon="2.188043478801478"><ele>144.0</ele><time>2026-05-04T16:14:01Z</time></trkpt><trkpt lat="49.36165661853046" lon="2.187940980399687"><ele>144.0</ele><time>2026-05-04T16:14:02Z</time></trkpt><trkpt lat="49.36172027068365" lon="2.1878540705805696"><ele>144.0</ele><time>2026-05-04T16:14:03Z</time></trkpt><trkpt lat="49.36176614013582" lon="2.1877833746110498"><ele>144.0</ele><time>2026-05-04T16:14:04Z</time></trkpt><trkpt lat="49.36183173512109" lon="2.1876791898532484"><ele>144.0</ele><time>2026-05-04T16:14:06Z</time></trkpt><trkpt lat="49.361886341255484" lon="2.187614779241625"><ele>144.0</ele><time>2026-05-04T16:14:09Z</time></trkpt><trkpt lat="49.3618511407634" lon="2.187516808997258"><ele>144.0</ele><time>2026-05-04T16:14:44.999Z</time></trkpt><trkpt lat="49.36175799429451" lon="2.1874376077153905"><ele>144.0</ele><time>2026-05-04T16:14:46.999Z</time></trkpt><trkpt lat="49.36167158779435" lon="2.1873561083183977"><ele>144.0</ele><time>2026-05-04T16:14:48.999Z</time></trkpt><trkpt lat="49.361551975676306" lon="2.187284507095984"><ele>144.0</ele><time>2026-05-04T16:14:50.999Z</time></trkpt><trkpt lat="49.36149127397873" lon="2.1872394646572677"><ele>144.0</ele><time>2026-05-04T16:14:51.999Z</time></trkpt><trkpt lat="49.36142010323579" lon="2.1871805183631308"><ele>144.0</ele><time>2026-05-04T16:14:53.999Z</time></trkpt><trkpt lat="49.361351498472466" lon="2.187057346285685"><ele>144.0</ele><time>2026-05-04T16:14:55.999Z</time></trkpt><trkpt lat="49.36129657651388" lon="2.1869531235136024"><ele>144.0</ele><time>2026-05-04T16:14:57.999Z</time></trkpt><trkpt lat="49.361258677601725" lon="2.1868545121261174"><ele>144.0</ele><time>2026-05-04T16:14:59.999Z</time></trkpt><trkpt lat="49.36121358296735" lon="2.1867808463816996"><ele>144.0</ele><time>2026-05-04T16:15:00.999Z</time></trkpt><trkpt lat="49.36116956869997" lon="2.1866105414860977"><ele>144.0</ele><time>2026-05-04T16:15:01.999Z</time></trkpt><trkpt lat="49.36111238672664" lon="2.1864575622890428"><ele>144.0</ele><time>2026-05-04T16:15:02.999Z</time></trkpt><trkpt lat="49.361055153534195" lon="2.1863258350497454"><ele>144.0</ele><time>2026-05-04T16:15:03.999Z</time></trkpt><trkpt lat="49.360994330650236" lon="2.186212229535964"><ele>144.0</ele><time>2026-05-04T16:15:04.999Z</time></trkpt><trkpt lat="49.36093855117489" lon="2.1861179528568355"><ele>144.0</ele><time>2026-05-04T16:15:05.999Z</time></trkpt><trkpt lat="49.36085305791346" lon="2.1860187542774354"><ele>144.0</ele><time>2026-05-04T16:15:07.999Z</time></trkpt><trkpt lat="49.36078822601114" lon="2.18594520348869"><ele>144.0</ele><time>2026-05-04T16:15:08.999Z</time></trkpt><trkpt lat="49.360696611849974" lon="2.185855538363577"><ele>144.0</ele><time>2026-05-04T16:15:10.999Z</time></trkpt><trkpt lat="49.360638066433495" lon="2.1857633893479007"><ele>144.0</ele><time>2026-05-04T16:15:12.999Z</time></trkpt><trkpt lat="49.36063407625461" lon="2.18565437920373"><ele>143.5</ele><time>2026-05-04T16:15:14.999Z</time></trkpt><trkpt lat="49.36060737230545" lon="2.1855045327638325"><ele>143.0</ele><time>2026-05-04T16:15:17.999Z</time></trkpt><trkpt lat="49.36055799096198" lon="2.1853798673950275"><ele>142.5</ele><time>2026-05-04T16:15:19.999Z</time></trkpt><trkpt lat="49.360535031519994" lon="2.18525372465319"><ele>142.0</ele><time>2026-05-04T16:15:21.999Z</time></trkpt><trkpt lat="49.36048174641448" lon="2.185181355406652"><ele>141.5</ele><time>2026-05-04T16:15:23.999Z</time></trkpt><trkpt lat="49.36046116141203" lon="2.1850856161667207"><ele>141.0</ele><time>2026-05-04T16:15:32Z</time></trkpt><trkpt lat="49.3604013934118" lon="2.1849876873446537"><ele>139.5</ele><time>2026-05-04T16:15:49Z</time></trkpt><trkpt lat="49.36034289634297" lon="2.184861456493142"><ele>138.0</ele><time>2026-05-04T16:15:51Z</time></trkpt><trkpt lat="49.36029621436515" lon="2.184789340390802"><ele>136.5</ele><time>2026-05-04T16:15:54Z</time></trkpt><trkpt lat="49.360240667653834" lon="2.184717795603321"><ele>135.0</ele><time>2026-05-04T16:15:56Z</time></trkpt><trkpt lat="49.36020454378219" lon="2.1846176408883653"><ele>133.5</ele><time>2026-05-04T16:15:59Z</time></trkpt><trkpt lat="49.36016051834648" lon="2.1845105236900326"><ele>132.0</ele><time>2026-05-04T16:16:03Z</time></trkpt><trkpt lat="49.360195436948544" lon="2.1843941316775175"><ele>132.16666666666666</ele><time>2026-05-04T16:16:07Z</time></trkpt><trkpt lat="49.36026457746057" lon="2.184378258108575"><ele>132.33333333333334</ele><time>2026-05-04T16:16:09Z</time></trkpt><trkpt lat="49.36032940596102" lon="2.184333715465901"><ele>132.5</ele><time>2026-05-04T16:16:11Z</time></trkpt><trkpt lat="49.360352008570594" lon="2.1842246976179753"><ele>132.66666666666669</ele><time>2026-05-04T16:16:13Z</time></trkpt><trkpt lat="49.36044030544059" lon="2.1842379015139133"><ele>132.83333333333334</ele><time>2026-05-04T16:16:14Z</time></trkpt><trkpt lat="49.36052606600692" lon="2.184133665979057"><ele>133.0</ele><time>2026-05-04T16:16:16Z</time></trkpt><trkpt lat="49.36075243306591" lon="2.1841106976620277"><ele>133.0</ele><time>2026-05-04T16:16:17Z</time></trkpt><trkpt lat="49.360845646199444" lon="2.184085758268385"><ele>133.0</ele><time>2026-05-04T16:16:18Z</time></trkpt><trkpt lat="49.360952297232" lon="2.184072579918695"><ele>133.0</ele><time>2026-05-04T16:16:19Z</time></trkpt><trkpt lat="49.36108083430348" lon="2.1840538217948278"><ele>133.0</ele><time>2026-05-04T16:16:20Z</time></trkpt><trkpt lat="49.36117807382126" lon="2.1840249620612857"><ele>133.0</ele><time>2026-05-04T16:16:21Z</time></trkpt><trkpt lat="49.361270547931035" lon="2.18402357551106"><ele>132.20000000000002</ele><time>2026-05-04T16:16:22Z</time></trkpt><trkpt lat="49.36136119023176" lon="2.1840020909610702"><ele>131.4</ele><time>2026-05-04T16:16:23Z</time></trkpt><trkpt lat="49.36146478283363" lon="2.18398289494374"><ele>130.60000000000002</ele><time>2026-05-04T16:16:24Z</time></trkpt><trkpt lat="49.36157495424964" lon="2.1839496375206484"><ele>129.8</ele><time>2026-05-04T16:16:25Z</time></trkpt><trkpt lat="49.361669366115905" lon="2.183933036410049"><ele>129.0</ele><time>2026-05-04T16:16:26Z</time></trkpt><trkpt lat="49.36173277229129" lon="2.1839529489314864"><ele>130.66666666666666</ele><time>2026-05-04T16:16:27Z</time></trkpt><trkpt lat="49.36180364175916" lon="2.1839249122187567"><ele>132.33333333333334</ele><time>2026-05-04T16:16:29Z</time></trkpt><trkpt lat="49.361866319931536" lon="2.1839122799407313"><ele>134.0</ele><time>2026-05-04T16:16:30Z</time></trkpt><trkpt lat="49.361942931258724" lon="2.1839194124658006"><ele>135.66666666666669</ele><time>2026-05-04T16:16:31Z</time></trkpt><trkpt lat="49.36200599978156" lon="2.1839210617443903"><ele>137.33333333333334</ele><time>2026-05-04T16:16:32Z</time></trkpt><trkpt lat="49.362132806172816" lon="2.18390081892512"><ele>139.0</ele><time>2026-05-04T16:16:34Z</time></trkpt><trkpt lat="49.3622161832901" lon="2.1838692287736485"><ele>140.4</ele><time>2026-05-04T16:16:35Z</time></trkpt><trkpt lat="49.3622871804343" lon="2.1838142375231584"><ele>141.8</ele><time>2026-05-04T16:16:36Z</time></trkpt><trkpt lat="49.362407019975485" lon="2.183723900401584"><ele>143.2</ele><time>2026-05-04T16:16:38Z</time></trkpt><trkpt lat="49.36247378303437" lon="2.1836600354286806"><ele>144.6</ele><time>2026-05-04T16:16:39Z</time></trkpt><trkpt lat="49.362561341883925" lon="2.183587949791301"><ele>146.0</ele><time>2026-05-04T16:16:40Z</time></trkpt><trkpt lat="49.3626639198882" lon="2.183523425220519"><ele>146.0</ele><time>2026-05-04T16:16:41Z</time></trkpt><trkpt lat="49.36274327254287" lon="2.183451556693869"><ele>146.0</ele><time>2026-05-04T16:16:42Z</time></trkpt><trkpt lat="49.362812530321555" lon="2.1833959987162563"><ele>146.0</ele><time>2026-05-04T16:16:43Z</time></trkpt><trkpt lat="49.36288654331964" lon="2.183364955154025"><ele>146.0</ele><time>2026-05-04T16:16:44Z</time></trkpt><trkpt lat="49.36295799532886" lon="2.183292013326017"><ele>146.0</ele><time>2026-05-04T16:16:44.999Z</time></trkpt><trkpt lat="49.36302679000181" lon="2.183234073210445"><ele>146.0</ele><time>2026-05-04T16:16:45.999Z</time></trkpt><trkpt lat="49.36309376016077" lon="2.1831971647962463"><ele>145.5</ele><time>2026-05-04T16:16:46.999Z</time></trkpt><trkpt lat="49.36314809795529" lon="2.1831473190381847"><ele>145.0</ele><time>2026-05-04T16:16:47.999Z</time></trkpt><trkpt lat="49.363207366768506" lon="2.1830891633927227"><ele>144.5</ele><time>2026-05-04T16:16:48.999Z</time></trkpt><trkpt lat="49.36327995560197" lon="2.183022559509674"><ele>144.0</ele><time>2026-05-04T16:16:49.999Z</time></trkpt><trkpt lat="49.36335583884734" lon="2.182956414449797"><ele>143.5</ele><time>2026-05-04T16:16:50.999Z</time></trkpt><trkpt lat="49.36343242969061" lon="2.182900095983549"><ele>143.0</ele><time>2026-05-04T16:16:51.999Z</time></trkpt><trkpt lat="49.363502361299204" lon="2.1828280125097295"><ele>143.0</ele><time>2026-05-04T16:16:52.999Z</time></trkpt><trkpt lat="49.36356521505189" lon="2.182772999019072"><ele>143.0</ele><time>2026-05-04T16:16:53.999Z</time></trkpt><trkpt lat="49.36363200632345" lon="2.182698888008139"><ele>143.0</ele><time>2026-05-04T16:16:54.999Z</time></trkpt><trkpt lat="49.36369695538469" lon="2.1826678857157606"><ele>143.0</ele><time>2026-05-04T16:16:55.999Z</time></trkpt><trkpt lat="49.36376577561687" lon="2.1825986086431794"><ele>143.0</ele><time>2026-05-04T16:16:56.999Z</time></trkpt><trkpt lat="49.36383319530085" lon="2.1825563416373766"><ele>143.0</ele><time>2026-05-04T16:16:57.999Z</time></trkpt><trkpt lat="49.363898621554625" lon="2.182457471532207"><ele>143.0</ele><time>2026-05-04T16:16:58.999Z</time></trkpt><trkpt lat="49.36396335806638" lon="2.1823902010854304"><ele>143.0</ele><time>2026-05-04T16:16:59.999Z</time></trkpt><trkpt lat="49.36403680825379" lon="2.1823291997092156"><ele>143.0</ele><time>2026-05-04T16:17:00.999Z</time></trkpt><trkpt lat="49.364128850320704" lon="2.1822764183917074"><ele>143.0</ele><time>2026-05-04T16:17:01.999Z</time></trkpt><trkpt lat="49.364209617064624" lon="2.1822027984061516"><ele>143.0</ele><time>2026-05-04T16:17:02.999Z</time></trkpt><trkpt lat="49.36427048697947" lon="2.1821526016445274"><ele>143.0</ele><time>2026-05-04T16:17:03.999Z</time></trkpt><trkpt lat="49.36433467511603" lon="2.182078331273852"><ele>142.4</ele><time>2026-05-04T16:17:04.999Z</time></trkpt><trkpt lat="49.36439624433376" lon="2.1820180564979914"><ele>141.8</ele><time>2026-05-04T16:17:05.999Z</time></trkpt><trkpt lat="49.36445542874649" lon="2.1819846720678813"><ele>141.2</ele><time>2026-05-04T16:17:06.999Z</time></trkpt><trkpt lat="49.3645526404796" lon="2.1818987890620525"><ele>140.6</ele><time>2026-05-04T16:17:08.999Z</time></trkpt><trkpt lat="49.36462345758074" lon="2.181821100850473"><ele>140.0</ele><time>2026-05-04T16:17:10.999Z</time></trkpt><trkpt lat="49.364785233205545" lon="2.181669043579178"><ele>140.0</ele><time>2026-05-04T16:17:50Z</time></trkpt><trkpt lat="49.364876780405666" lon="2.181566615735566"><ele>140.0</ele><time>2026-05-04T16:17:52Z</time></trkpt><trkpt lat="49.364950638469004" lon="2.18152580836974"><ele>140.0</ele><time>2026-05-04T16:17:53Z</time></trkpt><trkpt lat="49.36503476924481" lon="2.1814921377158267"><ele>140.0</ele><time>2026-05-04T16:17:54Z</time></trkpt><trkpt lat="49.365094021027716" lon="2.1814451018987504"><ele>140.0</ele><time>2026-05-04T16:17:55Z</time></trkpt><trkpt lat="49.36516180862218" lon="2.1813992091537306"><ele>140.0</ele><time>2026-05-04T16:17:56Z</time></trkpt><trkpt lat="49.36521569462964" lon="2.181348745008997"><ele>140.0</ele><time>2026-05-04T16:17:57Z</time></trkpt><trkpt lat="49.365273973076455" lon="2.1813049488131218"><ele>140.0</ele><time>2026-05-04T16:17:58Z</time></trkpt><trkpt lat="49.36538585037189" lon="2.181251453584289"><ele>140.0</ele><time>2026-05-04T16:18:00Z</time></trkpt><trkpt lat="49.365488002489116" lon="2.1811583649745083"><ele>140.0</ele><time>2026-05-04T16:18:02Z</time></trkpt><trkpt lat="49.36557459870373" lon="2.1810774100696113"><ele>140.0</ele><time>2026-05-04T16:18:04Z</time></trkpt><trkpt lat="49.365631604297526" lon="2.1810335220604946"><ele>139.83333333333331</ele><time>2026-05-04T16:18:05Z</time></trkpt><trkpt lat="49.365714120667796" lon="2.180967195631384"><ele>139.66666666666666</ele><time>2026-05-04T16:18:07Z</time></trkpt><trkpt lat="49.365772401818326" lon="2.1809043326375552"><ele>139.5</ele><time>2026-05-04T16:18:09Z</time></trkpt><trkpt lat="49.36582594841433" lon="2.1808452408253793"><ele>139.33333333333334</ele><time>2026-05-04T16:18:10Z</time></trkpt><trkpt lat="49.36587844705113" lon="2.180782408588264"><ele>139.16666666666669</ele><time>2026-05-04T16:18:11Z</time></trkpt><trkpt lat="49.36598062576268" lon="2.1806670959754224"><ele>139.0</ele><time>2026-05-04T16:18:13Z</time></trkpt><trkpt lat="49.366055577645646" lon="2.18059916781464"><ele>139.0</ele><time>2026-05-04T16:18:14Z</time></trkpt><trkpt lat="49.366140381426945" lon="2.180539814862657"><ele>139.0</ele><time>2026-05-04T16:18:15Z</time></trkpt><trkpt lat="49.366246006418024" lon="2.180457092216635"><ele>139.0</ele><time>2026-05-04T16:18:16Z</time></trkpt><trkpt lat="49.36632924867346" lon="2.1803631660831946"><ele>139.0</ele><time>2026-05-04T16:18:17Z</time></trkpt><trkpt lat="49.36639082998594" lon="2.1803087323012322"><ele>139.0</ele><time>2026-05-04T16:18:18Z</time></trkpt><trkpt lat="49.36645820662104" lon="2.1802435220875327"><ele>138.83333333333334</ele><time>2026-05-04T16:18:19Z</time></trkpt><trkpt lat="49.36656486464232" lon="2.1801477710177597"><ele>138.66666666666669</ele><time>2026-05-04T16:18:21Z</time></trkpt><trkpt lat="49.36663078986877" lon="2.180090794913922"><ele>138.5</ele><time>2026-05-04T16:18:22Z</time></trkpt><trkpt lat="49.36671188030066" lon="2.180069377723254"><ele>138.33333333333334</ele><time>2026-05-04T16:18:23Z</time></trkpt><trkpt lat="49.3667752256769" lon="2.1800354623699936"><ele>138.16666666666666</ele><time>2026-05-04T16:18:24Z</time></trkpt><trkpt lat="49.36683149835573" lon="2.1799713759128756"><ele>138.0</ele><time>2026-05-04T16:18:25Z</time></trkpt><trkpt lat="49.36689137861151" lon="2.179917882964693"><ele>138.0</ele><time>2026-05-04T16:18:26Z</time></trkpt><trkpt lat="49.366979006971114" lon="2.179875784694871"><ele>138.0</ele><time>2026-05-04T16:18:28Z</time></trkpt><trkpt lat="49.36704283410747" lon="2.1798515161663357"><ele>138.0</ele><time>2026-05-04T16:18:31Z</time></trkpt><trkpt lat="49.36712017374911" lon="2.1798481597929515"><ele>138.0</ele><time>2026-05-04T16:18:32Z</time></trkpt><trkpt lat="49.36720108007496" lon="2.179780544274048"><ele>138.0</ele><time>2026-05-04T16:18:34Z</time></trkpt><trkpt lat="49.36711180509199" lon="2.1797042327678144"><ele>138.0</ele><time>2026-05-04T16:18:37.999Z</time></trkpt><trkpt lat="49.367201004785926" lon="2.1796669775404456"><ele>138.6</ele><time>2026-05-04T16:18:39.999Z</time></trkpt><trkpt lat="49.36726777653037" lon="2.179598507392677"><ele>139.20000000000002</ele><time>2026-05-04T16:18:40.999Z</time></trkpt><trkpt lat="49.367334576382504" lon="2.179519567847809"><ele>139.8</ele><time>2026-05-04T16:18:42.999Z</time></trkpt><trkpt lat="49.36742573394009" lon="2.1794623870106293"><ele>140.4</ele><time>2026-05-04T16:18:44.999Z</time></trkpt><trkpt lat="49.36752794438462" lon="2.179380396931478"><ele>141.0</ele><time>2026-05-04T16:18:46.999Z</time></trkpt><trkpt lat="49.36762431373209" lon="2.1793595800790277"><ele>141.0</ele><time>2026-05-04T16:18:48.999Z</time></trkpt><trkpt lat="49.36769216379526" lon="2.1793506164960172"><ele>141.0</ele><time>2026-05-04T16:18:49.999Z</time></trkpt><trkpt lat="49.367811153282126" lon="2.1793675255696225"><ele>141.0</ele><time>2026-05-04T16:18:51.999Z</time></trkpt><trkpt lat="49.36787396171942" lon="2.1794008130519695"><ele>141.0</ele><time>2026-05-04T16:18:52.999Z</time></trkpt><trkpt lat="49.36800526413446" lon="2.179486578299154"><ele>141.0</ele><time>2026-05-04T16:18:54.999Z</time></trkpt><trkpt lat="49.36807765633356" lon="2.1795338720591486"><ele>140.66666666666666</ele><time>2026-05-04T16:18:55.999Z</time></trkpt><trkpt lat="49.36814041589048" lon="2.179598840886173"><ele>140.33333333333334</ele><time>2026-05-04T16:18:56.999Z</time></trkpt><trkpt lat="49.36821445366059" lon="2.1796555042261145"><ele>140.0</ele><time>2026-05-04T16:18:58.999Z</time></trkpt><trkpt lat="49.3683117390496" lon="2.179705524690116"><ele>139.66666666666669</ele><time>2026-05-04T16:19:00.999Z</time></trkpt><trkpt lat="49.368376499172555" lon="2.179741594472415"><ele>139.33333333333334</ele><time>2026-05-04T16:19:01.999Z</time></trkpt><trkpt lat="49.36843953017019" lon="2.179780296886871"><ele>139.0</ele><time>2026-05-04T16:19:02.999Z</time></trkpt><trkpt lat="49.36851587082229" lon="2.1798277339769907"><ele>139.0</ele><time>2026-05-04T16:19:03.999Z</time></trkpt><trkpt lat="49.3685810344895" lon="2.179876091404375"><ele>139.0</ele><time>2026-05-04T16:19:04.999Z</time></trkpt><trkpt lat="49.36866224696205" lon="2.1799148199119487"><ele>139.0</ele><time>2026-05-04T16:19:05.999Z</time></trkpt><trkpt lat="49.36874879336427" lon="2.1799630033749513"><ele>139.0</ele><time>2026-05-04T16:19:06.999Z</time></trkpt><trkpt lat="49.36883441360833" lon="2.180009460118484"><ele>139.0</ele><time>2026-05-04T16:19:07.999Z</time></trkpt><trkpt lat="49.36889761984478" lon="2.1800355691032363"><ele>139.0</ele><time>2026-05-04T16:19:08.999Z</time></trkpt><trkpt lat="49.369029580227185" lon="2.180120938819244"><ele>139.0</ele><time>2026-05-04T16:19:10.999Z</time></trkpt><trkpt lat="49.369120035118605" lon="2.180178936771655"><ele>139.0</ele><time>2026-05-04T16:19:11.999Z</time></trkpt><trkpt lat="49.36923565616364" lon="2.180245034737847"><ele>139.0</ele><time>2026-05-04T16:19:12.999Z</time></trkpt><trkpt lat="49.36934173986993" lon="2.1802928312044645"><ele>139.0</ele><time>2026-05-04T16:19:13.999Z</time></trkpt><trkpt lat="49.36944088874595" lon="2.1803668834089374"><ele>139.0</ele><time>2026-05-04T16:19:14.999Z</time></trkpt><trkpt lat="49.369545928085934" lon="2.1804466434230263"><ele>139.0</ele><time>2026-05-04T16:19:15.999Z</time></trkpt><trkpt lat="49.369656407116736" lon="2.1805217910974397"><ele>139.0</ele><time>2026-05-04T16:19:16.999Z</time></trkpt><trkpt lat="49.36976565080414" lon="2.1806146022286534"><ele>139.0</ele><time>2026-05-04T16:19:17.999Z</time></trkpt><trkpt lat="49.36985105162674" lon="2.180680820391834"><ele>139.0</ele><time>2026-05-04T16:19:18.999Z</time></trkpt><trkpt lat="49.369925000279174" lon="2.180722901412072"><ele>139.0</ele><time>2026-05-04T16:19:19.999Z</time></trkpt><trkpt lat="49.37000611083167" lon="2.1807923074356452"><ele>139.5</ele><time>2026-05-04T16:19:20.999Z</time></trkpt><trkpt lat="49.3700884363052" lon="2.180849363017536"><ele>140.0</ele><time>2026-05-04T16:19:21.999Z</time></trkpt><trkpt lat="49.3701470017259" lon="2.180899131353402"><ele>140.5</ele><time>2026-05-04T16:19:22.999Z</time></trkpt><trkpt lat="49.37021933681209" lon="2.180953474489731"><ele>141.0</ele><time>2026-05-04T16:19:24.999Z</time></trkpt><trkpt lat="49.37028206526647" lon="2.1809762096324623"><ele>141.5</ele><time>2026-05-04T16:19:25.999Z</time></trkpt><trkpt lat="49.37035096123814" lon="2.181026263203423"><ele>142.0</ele><time>2026-05-04T16:19:28Z</time></trkpt><trkpt lat="49.3704695197005" lon="2.181097467078543"><ele>142.16666666666669</ele><time>2026-05-04T16:19:30Z</time></trkpt><trkpt lat="49.37054758982611" lon="2.181152242385273"><ele>142.33333333333334</ele><time>2026-05-04T16:19:31Z</time></trkpt><trkpt lat="49.37062977183881" lon="2.181203288441516"><ele>142.5</ele><time>2026-05-04T16:19:32Z</time></trkpt><trkpt lat="49.37070501668371" lon="2.1812522779048997"><ele>142.66666666666666</ele><time>2026-05-04T16:19:33Z</time></trkpt><trkpt lat="49.3707819043701" lon="2.1813104236031644"><ele>142.83333333333331</ele><time>2026-05-04T16:19:34Z</time></trkpt><trkpt lat="49.37086117278962" lon="2.181357707555272"><ele>143.0</ele><time>2026-05-04T16:19:35Z</time></trkpt><trkpt lat="49.37092715228103" lon="2.181384041403304"><ele>143.0</ele><time>2026-05-04T16:19:36Z</time></trkpt><trkpt lat="49.37101441217456" lon="2.1814782149779646"><ele>143.0</ele><time>2026-05-04T16:19:38Z</time></trkpt><trkpt lat="49.37113260925599" lon="2.1815594781041634"><ele>143.0</ele><time>2026-05-04T16:19:40Z</time></trkpt><trkpt lat="49.37120338657315" lon="2.1816076007960477"><ele>143.0</ele><time>2026-05-04T16:19:41Z</time></trkpt><trkpt lat="49.371291594127726" lon="2.181688723479993"><ele>143.0</ele><time>2026-05-04T16:19:43Z</time></trkpt><trkpt lat="49.371406591238426" lon="2.181709409453833"><ele>143.20000000000002</ele><time>2026-05-04T16:19:45Z</time></trkpt><trkpt lat="49.37150421301674" lon="2.1817334236557566"><ele>143.4</ele><time>2026-05-04T16:19:47Z</time></trkpt><trkpt lat="49.37158190428705" lon="2.181789834200426"><ele>143.60000000000002</ele><time>2026-05-04T16:19:49Z</time></trkpt><trkpt lat="49.37165153329088" lon="2.1817759119950026"><ele>143.8</ele><time>2026-05-04T16:19:52Z</time></trkpt><trkpt lat="49.37171723019466" lon="2.181779861076491"><ele>144.0</ele><time>2026-05-04T16:19:54Z</time></trkpt><trkpt lat="49.37207942094593" lon="2.1818071339893628"><ele>144.66666666666666</ele><time>2026-05-04T16:19:56Z</time></trkpt><trkpt lat="49.37229369667698" lon="2.1818237659148703"><ele>145.33333333333331</ele><time>2026-05-04T16:19:58Z</time></trkpt><trkpt lat="49.37248979600095" lon="2.181765361611005"><ele>146.0</ele><time>2026-05-04T16:20:02Z</time></trkpt><trkpt lat="49.37259698543638" lon="2.1816670128285542"><ele>146.0</ele><time>2026-05-04T16:20:04Z</time></trkpt><trkpt lat="49.372690963528896" lon="2.1816164784345675"><ele>146.0</ele><time>2026-05-04T16:20:06Z</time></trkpt><trkpt lat="49.37271310792138" lon="2.1814787185492808"><ele>146.0</ele><time>2026-05-04T16:20:07Z</time></trkpt><trkpt lat="49.37278732027153" lon="2.1813935488618488"><ele>146.0</ele><time>2026-05-04T16:20:08Z</time></trkpt><trkpt lat="49.37284462988404" lon="2.181295666146172"><ele>146.0</ele><time>2026-05-04T16:20:09Z</time></trkpt><trkpt lat="49.37290151408367" lon="2.1812196914514423"><ele>146.0</ele><time>2026-05-04T16:20:10Z</time></trkpt><trkpt lat="49.37296437790685" lon="2.1811354386787256"><ele>146.0</ele><time>2026-05-04T16:20:12Z</time></trkpt><trkpt lat="49.37300775832367" lon="2.181029719819975"><ele>146.0</ele><time>2026-05-04T16:20:14Z</time></trkpt><trkpt lat="49.37310654766979" lon="2.1808871370129044"><ele>146.0</ele><time>2026-05-04T16:20:16Z</time></trkpt><trkpt lat="49.3731703582459" lon="2.1807975166638434"><ele>146.0</ele><time>2026-05-04T16:20:17Z</time></trkpt><trkpt lat="49.373229763570706" lon="2.180710879951639"><ele>146.0</ele><time>2026-05-04T16:20:18Z</time></trkpt><trkpt lat="49.3732680071498" lon="2.18059107714771"><ele>146.0</ele><time>2026-05-04T16:20:19Z</time></trkpt><trkpt lat="49.37334822694763" lon="2.1805599126190676"><ele>146.0</ele><time>2026-05-04T16:20:21Z</time></trkpt><trkpt lat="49.373386568403674" lon="2.1804750296373205"><ele>146.0</ele><time>2026-05-04T16:20:23Z</time></trkpt><trkpt lat="49.37333442221684" lon="2.1803392948297233"><ele>146.0</ele><time>2026-05-04T16:20:26Z</time></trkpt><trkpt lat="49.37323443164942" lon="2.1802318344343288"><ele>146.0</ele><time>2026-05-04T16:20:28Z</time></trkpt><trkpt lat="49.37316678681933" lon="2.1801753637060606"><ele>146.0</ele><time>2026-05-04T16:20:29Z</time></trkpt><trkpt lat="49.37310833699654" lon="2.1801156846609158"><ele>146.0</ele><time>2026-05-04T16:20:30Z</time></trkpt><trkpt lat="49.373056444259966" lon="2.180049058650733"><ele>146.0</ele><time>2026-05-04T16:20:31Z</time></trkpt><trkpt lat="49.37300063418655" lon="2.1799906288284925"><ele>146.0</ele><time>2026-05-04T16:20:32Z</time></trkpt><trkpt lat="49.372944308457626" lon="2.1799275083395813"><ele>146.0</ele><time>2026-05-04T16:20:33Z</time></trkpt><trkpt lat="49.372885433101374" lon="2.179864874600948"><ele>146.0</ele><time>2026-05-04T16:20:34Z</time></trkpt><trkpt lat="49.372823680388485" lon="2.17980091873544"><ele>146.0</ele><time>2026-05-04T16:20:35Z</time></trkpt><trkpt lat="49.372759363912024" lon="2.1797288229569878"><ele>146.0</ele><time>2026-05-04T16:20:36Z</time></trkpt><trkpt lat="49.37270510698511" lon="2.1796615579462104"><ele>146.0</ele><time>2026-05-04T16:20:37Z</time></trkpt><trkpt lat="49.37262342692539" lon="2.179575675690763"><ele>146.0</ele><time>2026-05-04T16:20:39Z</time></trkpt><trkpt lat="49.3725735085858" lon="2.179515948263305"><ele>146.0</ele><time>2026-05-04T16:20:40Z</time></trkpt><trkpt lat="49.37247986144939" lon="2.1794073354522108"><ele>146.0</ele><time>2026-05-04T16:20:42Z</time></trkpt><trkpt lat="49.372422732630575" lon="2.1793522247369173"><ele>146.0</ele><time>2026-05-04T16:20:43Z</time></trkpt><trkpt lat="49.37236026668396" lon="2.1792949938967627"><ele>146.0</ele><time>2026-05-04T16:20:44Z</time></trkpt><trkpt lat="49.37230908828746" lon="2.1792348719612566"><ele>146.0</ele><time>2026-05-04T16:20:45Z</time></trkpt><trkpt lat="49.37224427793066" lon="2.1791668257421866"><ele>146.0</ele><time>2026-05-04T16:20:46Z</time></trkpt><trkpt lat="49.37218312976301" lon="2.1790824187506357"><ele>146.0</ele><time>2026-05-04T16:20:47Z</time></trkpt><trkpt lat="49.37210413488234" lon="2.179009650401351"><ele>146.0</ele><time>2026-05-04T16:20:48Z</time></trkpt><trkpt lat="49.3720447637409" lon="2.1789267478172656"><ele>146.0</ele><time>2026-05-04T16:20:49Z</time></trkpt><trkpt lat="49.37198382226048" lon="2.178857851350818"><ele>145.6</ele><time>2026-05-04T16:20:50Z</time></trkpt><trkpt lat="49.37191396164038" lon="2.178773886684833"><ele>145.2</ele><time>2026-05-04T16:20:51Z</time></trkpt><trkpt lat="49.371850421790384" lon="2.178700775250575"><ele>144.8</ele><time>2026-05-04T16:20:52Z</time></trkpt><trkpt lat="49.371763881947416" lon="2.1786062130556583"><ele>144.4</ele><time>2026-05-04T16:20:53Z</time></trkpt><trkpt lat="49.37168089029002" lon="2.178504977051779"><ele>144.0</ele><time>2026-05-04T16:20:54Z</time></trkpt><trkpt lat="49.37161741930712" lon="2.1784402436729624"><ele>144.0</ele><time>2026-05-04T16:20:55Z</time></trkpt><trkpt lat="49.371548166638725" lon="2.17835293301817"><ele>144.0</ele><time>2026-05-04T16:20:56Z</time></trkpt><trkpt lat="49.3714665515102" lon="2.1782570235263337"><ele>144.0</ele><time>2026-05-04T16:20:57Z</time></trkpt><trkpt lat="49.37137604107202" lon="2.1781435049204902"><ele>144.0</ele><time>2026-05-04T16:20:58Z</time></trkpt><trkpt lat="49.37129917219817" lon="2.1780621846415547"><ele>144.0</ele><time>2026-05-04T16:20:59Z</time></trkpt><trkpt lat="49.371234854192664" lon="2.1779861999687467"><ele>143.8</ele><time>2026-05-04T16:21:00Z</time></trkpt><trkpt lat="49.37114662751494" lon="2.1779176292191105"><ele>143.60000000000002</ele><time>2026-05-04T16:21:02Z</time></trkpt><trkpt lat="49.37108094922499" lon="2.177823687816155"><ele>143.4</ele><time>2026-05-04T16:21:04Z</time></trkpt><trkpt lat="49.37097933689496" lon="2.177716956629266"><ele>143.20000000000002</ele><time>2026-05-04T16:21:06Z</time></trkpt><trkpt lat="49.37092330924885" lon="2.1776644490847343"><ele>143.0</ele><time>2026-05-04T16:21:07Z</time></trkpt><trkpt lat="49.370857606113226" lon="2.177596210776436"><ele>143.0</ele><time>2026-05-04T16:21:08Z</time></trkpt><trkpt lat="49.37079044400707" lon="2.177516696346215"><ele>143.0</ele><time>2026-05-04T16:21:09Z</time></trkpt><trkpt lat="49.37072754844581" lon="2.1774502968034035"><ele>143.0</ele><time>2026-05-04T16:21:10Z</time></trkpt><trkpt lat="49.370653495446355" lon="2.1773561997414363"><ele>143.0</ele><time>2026-05-04T16:21:11Z</time></trkpt><trkpt lat="49.37058102698076" lon="2.1772624231785707"><ele>143.0</ele><time>2026-05-04T16:21:12Z</time></trkpt><trkpt lat="49.37050932467702" lon="2.1771863488646535"><ele>143.0</ele><time>2026-05-04T16:21:13Z</time></trkpt><trkpt lat="49.370442468877705" lon="2.1771034235260713"><ele>142.83333333333331</ele><time>2026-05-04T16:21:14Z</time></trkpt><trkpt lat="49.37037778234789" lon="2.1770190638233022"><ele>142.66666666666666</ele><time>2026-05-04T16:21:15Z</time></trkpt><trkpt lat="49.37031422673386" lon="2.1769458554031367"><ele>142.5</ele><time>2026-05-04T16:21:16Z</time></trkpt><trkpt lat="49.37025150009108" lon="2.1768690096497845"><ele>142.33333333333334</ele><time>2026-05-04T16:21:17Z</time></trkpt><trkpt lat="49.370185409386096" lon="2.1768169617097195"><ele>142.16666666666669</ele><time>2026-05-04T16:21:18Z</time></trkpt><trkpt lat="49.37010945761941" lon="2.1767319417226614"><ele>142.0</ele><time>2026-05-04T16:21:19Z</time></trkpt><trkpt lat="49.37005771269394" lon="2.1766575930542897"><ele>142.0</ele><time>2026-05-04T16:21:20Z</time></trkpt><trkpt lat="49.369989664165985" lon="2.1765699412744786"><ele>142.0</ele><time>2026-05-04T16:21:21Z</time></trkpt><trkpt lat="49.36992981530897" lon="2.176502573391796"><ele>142.0</ele><time>2026-05-04T16:21:22Z</time></trkpt><trkpt lat="49.36987399933312" lon="2.176437074914065"><ele>142.0</ele><time>2026-05-04T16:21:23Z</time></trkpt><trkpt lat="49.369811270933965" lon="2.176369623040535"><ele>142.0</ele><time>2026-05-04T16:21:24Z</time></trkpt><trkpt lat="49.36971031342775" lon="2.1762666815277565"><ele>142.0</ele><time>2026-05-04T16:21:26Z</time></trkpt><trkpt lat="49.36965539662272" lon="2.1761983059249537"><ele>141.66666666666669</ele><time>2026-05-04T16:21:28Z</time></trkpt><trkpt lat="49.3695985816714" lon="2.1761342763275358"><ele>141.33333333333334</ele><time>2026-05-04T16:21:30Z</time></trkpt><trkpt lat="49.3695389844398" lon="2.1760636080400237"><ele>141.0</ele><time>2026-05-04T16:21:32Z</time></trkpt><trkpt lat="49.36947927670953" lon="2.1759940365639383"><ele>140.66666666666666</ele><time>2026-05-04T16:21:33Z</time></trkpt><trkpt lat="49.369433219003255" lon="2.175927158564906"><ele>140.33333333333331</ele><time>2026-05-04T16:21:34Z</time></trkpt><trkpt lat="49.36942766959577" lon="2.17580315859619"><ele>140.0</ele><time>2026-05-04T16:22:22Z</time></trkpt><trkpt lat="49.36949561305383" lon="2.1756773006641694"><ele>140.0</ele><time>2026-05-04T16:22:24Z</time></trkpt><trkpt lat="49.3695666214475" lon="2.1755125637502792"><ele>140.0</ele><time>2026-05-04T16:22:26Z</time></trkpt><trkpt lat="49.36960247633495" lon="2.1754190753205718"><ele>140.0</ele><time>2026-05-04T16:22:27Z</time></trkpt><trkpt lat="49.36964626505439" lon="2.175320686201165"><ele>140.0</ele><time>2026-05-04T16:22:28Z</time></trkpt><trkpt lat="49.36968395026358" lon="2.1752272469013874"><ele>140.0</ele><time>2026-05-04T16:22:29Z</time></trkpt><trkpt lat="49.36972424617002" lon="2.1751278297004806"><ele>140.0</ele><time>2026-05-04T16:22:30Z</time></trkpt><trkpt lat="49.36977482048917" lon="2.175022739020807"><ele>140.6</ele><time>2026-05-04T16:22:31Z</time></trkpt><trkpt lat="49.36983245954468" lon="2.1749006202590424"><ele>141.2</ele><time>2026-05-04T16:22:32Z</time></trkpt><trkpt lat="49.36988871627336" lon="2.174769491768247"><ele>141.8</ele><time>2026-05-04T16:22:33Z</time></trkpt><trkpt lat="49.36995649944026" lon="2.1746197561308263"><ele>142.4</ele><time>2026-05-04T16:22:34Z</time></trkpt><trkpt lat="49.37001175630338" lon="2.1745070979525276"><ele>143.0</ele><time>2026-05-04T16:22:35Z</time></trkpt><trkpt lat="49.370048057554456" lon="2.174425407831295"><ele>143.0</ele><time>2026-05-04T16:22:36Z</time></trkpt><trkpt lat="49.37010431284224" lon="2.174308088977092"><ele>143.0</ele><time>2026-05-04T16:22:38Z</time></trkpt><trkpt lat="49.370136476591085" lon="2.1742221732388205"><ele>143.0</ele><time>2026-05-04T16:22:39Z</time></trkpt><trkpt lat="49.370175075844784" lon="2.174131452668354"><ele>143.0</ele><time>2026-05-04T16:22:40Z</time></trkpt><trkpt lat="49.37022441067538" lon="2.174033754218069"><ele>143.0</ele><time>2026-05-04T16:22:41Z</time></trkpt><trkpt lat="49.37026643827647" lon="2.173933676242532"><ele>143.0</ele><time>2026-05-04T16:22:42Z</time></trkpt><trkpt lat="49.37030181572364" lon="2.173838125311583"><ele>143.0</ele><time>2026-05-04T16:22:43Z</time></trkpt><trkpt lat="49.37034341783334" lon="2.1737375276847937"><ele>143.0</ele><time>2026-05-04T16:22:44Z</time></trkpt><trkpt lat="49.37039126363178" lon="2.1736377776865123"><ele>143.0</ele><time>2026-05-04T16:22:45Z</time></trkpt><trkpt lat="49.37043546010543" lon="2.173544599491907"><ele>143.0</ele><time>2026-05-04T16:22:46Z</time></trkpt><trkpt lat="49.37049380317493" lon="2.1734077474403564"><ele>143.0</ele><time>2026-05-04T16:22:48Z</time></trkpt><trkpt lat="49.37053441616426" lon="2.1733254779900184"><ele>143.0</ele><time>2026-05-04T16:22:49Z</time></trkpt><trkpt lat="49.37058027493172" lon="2.173220571383457"><ele>143.28571428571428</ele><time>2026-05-04T16:22:50Z</time></trkpt><trkpt lat="49.37062313150122" lon="2.1731198544861767"><ele>143.57142857142856</ele><time>2026-05-04T16:22:51Z</time></trkpt><trkpt lat="49.37065984013868" lon="2.173027687562835"><ele>143.85714285714286</ele><time>2026-05-04T16:22:52Z</time></trkpt><trkpt lat="49.370702450298374" lon="2.1729293133243304"><ele>144.14285714285714</ele><time>2026-05-04T16:22:53Z</time></trkpt><trkpt lat="49.37074588892378" lon="2.1728283764224914"><ele>144.42857142857144</ele><time>2026-05-04T16:22:54Z</time></trkpt><trkpt lat="49.37078711643163" lon="2.172731571999964"><ele>144.71428571428572</ele><time>2026-05-04T16:22:55Z</time></trkpt><trkpt lat="49.37082571887563" lon="2.1726512131761817"><ele>145.0</ele><time>2026-05-04T16:22:56Z</time></trkpt><trkpt lat="49.370880678241235" lon="2.1725034634535563"><ele>145.4</ele><time>2026-05-04T16:22:58Z</time></trkpt><trkpt lat="49.37094301000782" lon="2.1723451886734315"><ele>145.8</ele><time>2026-05-04T16:23:00Z</time></trkpt><trkpt lat="49.37097999122695" lon="2.172178933882305"><ele>146.2</ele><time>2026-05-04T16:23:02Z</time></trkpt><trkpt lat="49.37098174890324" lon="2.172080865582867"><ele>146.6</ele><time>2026-05-04T16:23:03Z</time></trkpt><trkpt lat="49.370947639913005" lon="2.171970514439102"><ele>147.0</ele><time>2026-05-04T16:23:04Z</time></trkpt><trkpt lat="49.37089725831836" lon="2.171845906593511"><ele>147.0</ele><time>2026-05-04T16:23:05Z</time></trkpt><trkpt lat="49.370848527049496" lon="2.1717266208344124"><ele>147.0</ele><time>2026-05-04T16:23:06Z</time></trkpt><trkpt lat="49.37078338127197" lon="2.1716232561618116"><ele>147.0</ele><time>2026-05-04T16:23:07Z</time></trkpt><trkpt lat="49.37071011334826" lon="2.171480394212881"><ele>147.0</ele><time>2026-05-04T16:23:08Z</time></trkpt><trkpt lat="49.370647481118574" lon="2.1713831522068903"><ele>147.0</ele><time>2026-05-04T16:23:09Z</time></trkpt><trkpt lat="49.370598894826536" lon="2.1713086647056214"><ele>145.79999999999998</ele><time>2026-05-04T16:23:10Z</time></trkpt><trkpt lat="49.3705225505805" lon="2.1712317525558267"><ele>144.6</ele><time>2026-05-04T16:23:12Z</time></trkpt><trkpt lat="49.37045512627924" lon="2.1711141428786633"><ele>143.39999999999998</ele><time>2026-05-04T16:23:14Z</time></trkpt><trkpt lat="49.37042707553553" lon="2.1710179341588134"><ele>142.2</ele><time>2026-05-04T16:23:15Z</time></trkpt><trkpt lat="49.370333376534916" lon="2.1708590734128332"><ele>141.0</ele><time>2026-05-04T16:23:17Z</time></trkpt><trkpt lat="49.37025566956344" lon="2.1707630067813097"><ele>140.8</ele><time>2026-05-04T16:23:18Z</time></trkpt><trkpt lat="49.3701807792132" lon="2.170660779404186"><ele>140.6</ele><time>2026-05-04T16:23:19Z</time></trkpt><trkpt lat="49.37010331127601" lon="2.1705674446245076"><ele>140.4</ele><time>2026-05-04T16:23:20Z</time></trkpt><trkpt lat="49.37002854485358" lon="2.170474773806898"><ele>140.2</ele><time>2026-05-04T16:23:21Z</time></trkpt><trkpt lat="49.369951708299375" lon="2.1703857116105545"><ele>140.0</ele><time>2026-05-04T16:23:22Z</time></trkpt><trkpt lat="49.36989408673931" lon="2.1703070705438683"><ele>140.0</ele><time>2026-05-04T16:23:23Z</time></trkpt><trkpt lat="49.3698420454916" lon="2.170219502301497"><ele>140.0</ele><time>2026-05-04T16:23:24Z</time></trkpt><trkpt lat="49.36978143798125" lon="2.1701033261993885"><ele>140.0</ele><time>2026-05-04T16:23:26Z</time></trkpt><trkpt lat="49.369782868485046" lon="2.1699245129406632"><ele>140.0</ele><time>2026-05-04T16:23:28Z</time></trkpt><trkpt lat="49.36981979503196" lon="2.16974277617846"><ele>140.0</ele><time>2026-05-04T16:23:30Z</time></trkpt><trkpt lat="49.36985451672431" lon="2.1695849034077606"><ele>139.6</ele><time>2026-05-04T16:23:32Z</time></trkpt><trkpt lat="49.36988159120773" lon="2.1693927805311928"><ele>139.2</ele><time>2026-05-04T16:23:34Z</time></trkpt><trkpt lat="49.36990305741298" lon="2.1692903390394247"><ele>138.8</ele><time>2026-05-04T16:23:35Z</time></trkpt><trkpt lat="49.36992534230438" lon="2.169192205218361"><ele>138.4</ele><time>2026-05-04T16:23:36Z</time></trkpt><trkpt lat="49.369957022102696" lon="2.1690870014547246"><ele>138.0</ele><time>2026-05-04T16:23:37Z</time></trkpt><trkpt lat="49.36997906947526" lon="2.1689025291914006"><ele>138.0</ele><time>2026-05-04T16:23:39Z</time></trkpt><trkpt lat="49.370017136479206" lon="2.1687210424242562"><ele>138.0</ele><time>2026-05-04T16:23:41Z</time></trkpt><trkpt lat="49.370059496656395" lon="2.1685451785858"><ele>138.0</ele><time>2026-05-04T16:23:43Z</time></trkpt><trkpt lat="49.370099140175206" lon="2.168364158018963"><ele>138.0</ele><time>2026-05-04T16:23:45Z</time></trkpt><trkpt lat="49.37011657892627" lon="2.1682680982001443"><ele>138.0</ele><time>2026-05-04T16:23:46Z</time></trkpt><trkpt lat="49.37011179318427" lon="2.1681250343262675"><ele>136.8</ele><time>2026-05-04T16:23:48Z</time></trkpt><trkpt lat="49.37009057241951" lon="2.1679959517707186"><ele>135.60000000000002</ele><time>2026-05-04T16:23:50Z</time></trkpt><trkpt lat="49.37004292381904" lon="2.1677883903335395"><ele>134.39999999999998</ele><time>2026-05-04T16:23:52Z</time></trkpt><trkpt lat="49.37000370755592" lon="2.1676471352167397"><ele>133.2</ele><time>2026-05-04T16:23:53Z</time></trkpt><trkpt lat="49.369962063225444" lon="2.1674936761757975"><ele>132.0</ele><time>2026-05-04T16:23:54Z</time></trkpt><trkpt lat="49.36990905669633" lon="2.1673713696615096"><ele>131.33333333333334</ele><time>2026-05-04T16:23:55Z</time></trkpt><trkpt lat="49.36986148860461" lon="2.1672607631067256"><ele>130.66666666666666</ele><time>2026-05-04T16:23:56Z</time></trkpt><trkpt lat="49.36979505050187" lon="2.1671881147885323"><ele>130.0</ele><time>2026-05-04T16:23:57Z</time></trkpt><trkpt lat="49.369735414891316" lon="2.16711026232119"><ele>129.33333333333331</ele><time>2026-05-04T16:23:58Z</time></trkpt><trkpt lat="49.369687039119036" lon="2.1670388804381"><ele>128.66666666666666</ele><time>2026-05-04T16:23:59Z</time></trkpt><trkpt lat="49.36959663155073" lon="2.1669269238277216"><ele>128.0</ele><time>2026-05-04T16:24:01Z</time></trkpt><trkpt lat="49.36956108417108" lon="2.166844615848636"><ele>127.66666666666666</ele><time>2026-05-04T16:24:02Z</time></trkpt><trkpt lat="49.36952769734167" lon="2.166732900457914"><ele>127.33333333333333</ele><time>2026-05-04T16:24:03Z</time></trkpt><trkpt lat="49.36947089974381" lon="2.1665811366005814"><ele>127.0</ele><time>2026-05-04T16:24:05Z</time></trkpt><trkpt lat="49.36944438083847" lon="2.1664654332520574"><ele>126.66666666666666</ele><time>2026-05-04T16:24:07Z</time></trkpt><trkpt lat="49.36939611033989" lon="2.166394500748864"><ele>126.33333333333333</ele><time>2026-05-04T16:24:09Z</time></trkpt><trkpt lat="49.36935602526938" lon="2.1662979970426335"><ele>126.0</ele><time>2026-05-04T16:24:16Z</time></trkpt><trkpt lat="49.369421006023735" lon="2.1662974099527013"><ele>126.33333333333333</ele><time>2026-05-04T16:24:58Z</time></trkpt><trkpt lat="49.369518276191684" lon="2.166384947960481"><ele>126.66666666666666</ele><time>2026-05-04T16:25:02Z</time></trkpt><trkpt lat="49.36958050353063" lon="2.1664339421894927"><ele>127.0</ele><time>2026-05-04T16:25:03Z</time></trkpt><trkpt lat="49.36965410687784" lon="2.1664911874480692"><ele>127.33333333333333</ele><time>2026-05-04T16:25:04Z</time></trkpt><trkpt lat="49.36973220737016" lon="2.1665518231632936"><ele>127.66666666666666</ele><time>2026-05-04T16:25:05Z</time></trkpt><trkpt lat="49.369802735855224" lon="2.166613004342012"><ele>128.0</ele><time>2026-05-04T16:25:06Z</time></trkpt><trkpt lat="49.36987854328131" lon="2.1666995174479493"><ele>128.0</ele><time>2026-05-04T16:25:07Z</time></trkpt><trkpt lat="49.369962912310704" lon="2.166802047428245"><ele>128.0</ele><time>2026-05-04T16:25:08Z</time></trkpt><trkpt lat="49.370043726643935" lon="2.1669155925451142"><ele>128.0</ele><time>2026-05-04T16:25:09Z</time></trkpt><trkpt lat="49.37011412418617" lon="2.1669817528265423"><ele>128.0</ele><time>2026-05-04T16:25:10Z</time></trkpt><trkpt lat="49.37014901480483" lon="2.167082374723969"><ele>128.0</ele><time>2026-05-04T16:25:11Z</time></trkpt><trkpt lat="49.37021043890612" lon="2.1671734637603"><ele>128.0</ele><time>2026-05-04T16:25:12Z</time></trkpt><trkpt lat="49.370271264536235" lon="2.167333628371226"><ele>128.0</ele><time>2026-05-04T16:25:14Z</time></trkpt><trkpt lat="49.370318501037254" lon="2.16742375065246"><ele>128.0</ele><time>2026-05-04T16:25:16Z</time></trkpt><trkpt lat="49.370372229142546" lon="2.167486866873579"><ele>128.0</ele><time>2026-05-04T16:25:18Z</time></trkpt><trkpt lat="49.37047321547268" lon="2.1676274675335594"><ele>128.0</ele><time>2026-05-04T16:25:20Z</time></trkpt><trkpt lat="49.370543068187736" lon="2.1677120452269225"><ele>128.0</ele><time>2026-05-04T16:25:21Z</time></trkpt><trkpt lat="49.37059968362043" lon="2.167843834147176"><ele>128.0</ele><time>2026-05-04T16:25:22Z</time></trkpt><trkpt lat="49.37065428375597" lon="2.1679967070697046"><ele>128.0</ele><time>2026-05-04T16:25:23Z</time></trkpt><trkpt lat="49.37069014699194" lon="2.168129773366503"><ele>128.0</ele><time>2026-05-04T16:25:24Z</time></trkpt><trkpt lat="49.37074381304364" lon="2.168242662914074"><ele>128.0</ele><time>2026-05-04T16:25:25Z</time></trkpt><trkpt lat="49.37081266154152" lon="2.1683370104099424"><ele>128.0</ele><time>2026-05-04T16:25:26Z</time></trkpt><trkpt lat="49.37086656225337" lon="2.168414563230798"><ele>128.0</ele><time>2026-05-04T16:25:27Z</time></trkpt><trkpt lat="49.37093952570137" lon="2.1685060641319107"><ele>128.0</ele><time>2026-05-04T16:25:28Z</time></trkpt><trkpt lat="49.37098926893209" lon="2.16869089714474"><ele>128.0</ele><time>2026-05-04T16:25:29Z</time></trkpt><trkpt lat="49.371061111566455" lon="2.168794280992509"><ele>128.0</ele><time>2026-05-04T16:25:30Z</time></trkpt><trkpt lat="49.37110478943485" lon="2.1688661653398182"><ele>127.99999999999999</ele><time>2026-05-04T16:25:31Z</time></trkpt><trkpt lat="49.37115744497186" lon="2.168936262422755"><ele>128.0</ele><time>2026-05-04T16:25:32Z</time></trkpt><trkpt lat="49.3712170283675" lon="2.169014164579987"><ele>128.0</ele><time>2026-05-04T16:25:33Z</time></trkpt><trkpt lat="49.37128200128918" lon="2.1691033593722775"><ele>128.0</ele><time>2026-05-04T16:25:34Z</time></trkpt><trkpt lat="49.371360563747096" lon="2.169192222734842"><ele>127.99999999999999</ele><time>2026-05-04T16:25:35Z</time></trkpt><trkpt lat="49.371422185667804" lon="2.1692687240600583"><ele>128.0</ele><time>2026-05-04T16:25:36Z</time></trkpt><trkpt lat="49.37147940635716" lon="2.1693483187940883"><ele>128.8</ele><time>2026-05-04T16:25:37Z</time></trkpt><trkpt lat="49.37154411870352" lon="2.1694508267150066"><ele>129.60000000000002</ele><time>2026-05-04T16:25:38Z</time></trkpt><trkpt lat="49.3716184062568" lon="2.1695743803218477"><ele>130.39999999999998</ele><time>2026-05-04T16:25:39Z</time></trkpt><trkpt lat="49.371704639326296" lon="2.169709169756486"><ele>131.2</ele><time>2026-05-04T16:25:40Z</time></trkpt><trkpt lat="49.37178149794102" lon="2.1698328206912763"><ele>132.0</ele><time>2026-05-04T16:25:41Z</time></trkpt><trkpt lat="49.37185896476269" lon="2.1699714766313427"><ele>134.75</ele><time>2026-05-04T16:25:42Z</time></trkpt><trkpt lat="49.371938232139904" lon="2.170151245794265"><ele>137.5</ele><time>2026-05-04T16:25:43Z</time></trkpt><trkpt lat="49.37202053396446" lon="2.1702449070428442"><ele>140.25</ele><time>2026-05-04T16:25:44Z</time></trkpt><trkpt lat="49.372112808928236" lon="2.1703959925122143"><ele>143.0</ele><time>2026-05-04T16:25:45Z</time></trkpt><trkpt lat="49.37218862587191" lon="2.1705996555016736"><ele>143.0</ele><time>2026-05-04T16:25:46Z</time></trkpt><trkpt lat="49.37226607637111" lon="2.170746595701617"><ele>143.0</ele><time>2026-05-04T16:25:47Z</time></trkpt><trkpt lat="49.3723380427719" lon="2.17086875106186"><ele>143.0</ele><time>2026-05-04T16:25:48Z</time></trkpt><trkpt lat="49.372367128426895" lon="2.170987050254582"><ele>143.0</ele><time>2026-05-04T16:25:49Z</time></trkpt><trkpt lat="49.37242796091136" lon="2.171061122503239"><ele>143.0</ele><time>2026-05-04T16:25:50Z</time></trkpt><trkpt lat="49.372488289605414" lon="2.1711578423502975"><ele>143.0</ele><time>2026-05-04T16:25:51Z</time></trkpt><trkpt lat="49.37255375964074" lon="2.171267680796757"><ele>143.0</ele><time>2026-05-04T16:25:52Z</time></trkpt><trkpt lat="49.37261546219368" lon="2.171376652327396"><ele>143.0</ele><time>2026-05-04T16:25:53Z</time></trkpt><trkpt lat="49.37267154906965" lon="2.1714784134664957"><ele>143.0</ele><time>2026-05-04T16:25:54Z</time></trkpt><trkpt lat="49.37272918199236" lon="2.1716029680783264"><ele>143.0</ele><time>2026-05-04T16:25:55Z</time></trkpt><trkpt lat="49.37279623010632" lon="2.1717333778784975"><ele>143.4</ele><time>2026-05-04T16:25:56Z</time></trkpt><trkpt lat="49.37283862456738" lon="2.17183062969773"><ele>143.8</ele><time>2026-05-04T16:25:57Z</time></trkpt><trkpt lat="49.37290260971531" lon="2.171922800781088"><ele>144.2</ele><time>2026-05-04T16:25:58Z</time></trkpt><trkpt lat="49.37299083891014" lon="2.17207741327436"><ele>144.6</ele><time>2026-05-04T16:25:59Z</time></trkpt><trkpt lat="49.37305734689993" lon="2.1721811635559813"><ele>145.0</ele><time>2026-05-04T16:26:00Z</time></trkpt><trkpt lat="49.37312794311027" lon="2.1722502846113687"><ele>146.4</ele><time>2026-05-04T16:26:01Z</time></trkpt><trkpt lat="49.373198173106424" lon="2.172368571029359"><ele>147.8</ele><time>2026-05-04T16:26:02Z</time></trkpt><trkpt lat="49.37328450695406" lon="2.172478118461454"><ele>149.2</ele><time>2026-05-04T16:26:03Z</time></trkpt><trkpt lat="49.3733507728081" lon="2.17254841108882"><ele>150.6</ele><time>2026-05-04T16:26:04Z</time></trkpt><trkpt lat="49.373407165405816" lon="2.1726261226593704"><ele>152.0</ele><time>2026-05-04T16:26:05Z</time></trkpt><trkpt lat="49.3734897665309" lon="2.1728131001353703"><ele>152.0</ele><time>2026-05-04T16:26:07Z</time></trkpt><trkpt lat="49.37356111588834" lon="2.1729260944307796"><ele>152.0</ele><time>2026-05-04T16:26:08Z</time></trkpt><trkpt lat="49.373665807478325" lon="2.1730102108147884"><ele>152.0</ele><time>2026-05-04T16:26:09Z</time></trkpt><trkpt lat="49.3737413453263" lon="2.173100435609903"><ele>152.0</ele><time>2026-05-04T16:26:10Z</time></trkpt><trkpt lat="49.37381498017567" lon="2.1732042529948714"><ele>152.0</ele><time>2026-05-04T16:26:11Z</time></trkpt><trkpt lat="49.37390217266503" lon="2.1732804871875127"><ele>150.6</ele><time>2026-05-04T16:26:12Z</time></trkpt><trkpt lat="49.37397490812306" lon="2.173375455375886"><ele>149.2</ele><time>2026-05-04T16:26:13Z</time></trkpt><trkpt lat="49.374032635370824" lon="2.173432871642635"><ele>147.8</ele><time>2026-05-04T16:26:15Z</time></trkpt><trkpt lat="49.37400955455987" lon="2.1736189424992287"><ele>146.4</ele><time>2026-05-04T16:26:16Z</time></trkpt><trkpt lat="49.37409612063185" lon="2.173762138290569"><ele>145.0</ele><time>2026-05-04T16:26:18Z</time></trkpt><trkpt lat="49.374136226380415" lon="2.1738645968469714"><ele>145.0</ele><time>2026-05-04T16:26:19Z</time></trkpt><trkpt lat="49.37415724962305" lon="2.1739699329270374"><ele>145.0</ele><time>2026-05-04T16:26:20Z</time></trkpt><trkpt lat="49.37419924223936" lon="2.1741067307330235"><ele>145.0</ele><time>2026-05-04T16:26:22Z</time></trkpt><trkpt lat="49.37421464569488" lon="2.174205674825295"><ele>145.0</ele><time>2026-05-04T16:26:23Z</time></trkpt><trkpt lat="49.37424690411637" lon="2.174312396371955"><ele>145.0</ele><time>2026-05-04T16:26:25Z</time></trkpt><trkpt lat="49.37430944545412" lon="2.1744689244609474"><ele>145.0</ele><time>2026-05-04T16:26:27Z</time></trkpt><trkpt lat="49.37435242101173" lon="2.1745528068407296"><ele>145.4</ele><time>2026-05-04T16:26:28Z</time></trkpt><trkpt lat="49.3743808757398" lon="2.1746515619321056"><ele>145.8</ele><time>2026-05-04T16:26:29Z</time></trkpt><trkpt lat="49.374435422022" lon="2.1747981782031913"><ele>146.2</ele><time>2026-05-04T16:26:30Z</time></trkpt><trkpt lat="49.37446118683292" lon="2.1749674900283007"><ele>146.6</ele><time>2026-05-04T16:26:31Z</time></trkpt><trkpt lat="49.37451292118698" lon="2.1751247280005237"><ele>147.0</ele><time>2026-05-04T16:26:32Z</time></trkpt><trkpt lat="49.374571062235084" lon="2.1753017122186096"><ele>148.0</ele><time>2026-05-04T16:26:33Z</time></trkpt><trkpt lat="49.37462594171104" lon="2.175477644331661"><ele>149.0</ele><time>2026-05-04T16:26:34Z</time></trkpt><trkpt lat="49.37466418753032" lon="2.1756373349595113"><ele>150.0</ele><time>2026-05-04T16:26:35Z</time></trkpt><trkpt lat="49.37471049241512" lon="2.175747130667311"><ele>151.0</ele><time>2026-05-04T16:26:36Z</time></trkpt><trkpt lat="49.374794134883764" lon="2.175907084295438"><ele>151.66666666666669</ele><time>2026-05-04T16:26:38Z</time></trkpt><trkpt lat="49.37483371539333" lon="2.1760060908377796"><ele>152.33333333333334</ele><time>2026-05-04T16:26:39Z</time></trkpt><trkpt lat="49.37485578080176" lon="2.176132973694408"><ele>153.0</ele><time>2026-05-04T16:26:40Z</time></trkpt><trkpt lat="49.37491050536454" lon="2.1762510507153263"><ele>153.66666666666666</ele><time>2026-05-04T16:26:41Z</time></trkpt><trkpt lat="49.37494163960457" lon="2.176367711493479"><ele>154.33333333333331</ele><time>2026-05-04T16:26:42Z</time></trkpt><trkpt lat="49.374975350977" lon="2.1764764686962352"><ele>155.0</ele><time>2026-05-04T16:26:43Z</time></trkpt><trkpt lat="49.37501519392112" lon="2.176625250881198"><ele>155.0</ele><time>2026-05-04T16:26:45Z</time></trkpt><trkpt lat="49.37504551851469" lon="2.1767338180489206"><ele>155.0</ele><time>2026-05-04T16:26:46Z</time></trkpt><trkpt lat="49.37507310450265" lon="2.1768413743213313"><ele>155.0</ele><time>2026-05-04T16:26:47Z</time></trkpt><trkpt lat="49.3751197554519" lon="2.1769707969654313"><ele>155.0</ele><time>2026-05-04T16:26:48Z</time></trkpt><trkpt lat="49.37517225831974" lon="2.1770631009776875"><ele>155.0</ele><time>2026-05-04T16:26:49Z</time></trkpt><trkpt lat="49.37520476925316" lon="2.17719241225036"><ele>155.0</ele><time>2026-05-04T16:26:51Z</time></trkpt><trkpt lat="49.375234333105034" lon="2.177301220414149"><ele>154.16666666666666</ele><time>2026-05-04T16:26:52Z</time></trkpt><trkpt lat="49.37529267105287" lon="2.177453886780772"><ele>153.33333333333331</ele><time>2026-05-04T16:26:54Z</time></trkpt><trkpt lat="49.37533370435109" lon="2.1775478618851016"><ele>152.5</ele><time>2026-05-04T16:26:55Z</time></trkpt><trkpt lat="49.37538235483355" lon="2.1776265362683267"><ele>151.66666666666666</ele><time>2026-05-04T16:26:56Z</time></trkpt><trkpt lat="49.375460948971636" lon="2.1776569610689864"><ele>150.83333333333334</ele><time>2026-05-04T16:26:57Z</time></trkpt><trkpt lat="49.37553256167178" lon="2.1777544293272846"><ele>150.0</ele><time>2026-05-04T16:26:58Z</time></trkpt><trkpt lat="49.3755857950273" lon="2.177867185343351"><ele>149.0</ele><time>2026-05-04T16:26:59Z</time></trkpt><trkpt lat="49.375654871192594" lon="2.1779251210981365"><ele>148.0</ele><time>2026-05-04T16:27:00Z</time></trkpt><trkpt lat="49.37572988652979" lon="2.178020487882829"><ele>147.0</ele><time>2026-05-04T16:27:01Z</time></trkpt><trkpt lat="49.375791335657624" lon="2.1781155320525696"><ele>146.0</ele><time>2026-05-04T16:27:02Z</time></trkpt><trkpt lat="49.37584834099636" lon="2.178229444953087"><ele>145.0</ele><time>2026-05-04T16:27:03Z</time></trkpt><trkpt lat="49.3759216521424" lon="2.178337639783369"><ele>144.4</ele><time>2026-05-04T16:27:04Z</time></trkpt><trkpt lat="49.37599843892743" lon="2.178440269506031"><ele>143.8</ele><time>2026-05-04T16:27:05Z</time></trkpt><trkpt lat="49.37610116435077" lon="2.178521791824556"><ele>143.2</ele><time>2026-05-04T16:27:06Z</time></trkpt><trkpt lat="49.376177375991745" lon="2.178640577104395"><ele>142.6</ele><time>2026-05-04T16:27:07Z</time></trkpt><trkpt lat="49.37626455059575" lon="2.178772075313009"><ele>142.0</ele><time>2026-05-04T16:27:08Z</time></trkpt><trkpt lat="49.37633157527874" lon="2.1788775638866476"><ele>142.0</ele><time>2026-05-04T16:27:09Z</time></trkpt><trkpt lat="49.37639033755578" lon="2.178962827002684"><ele>142.0</ele><time>2026-05-04T16:27:10Z</time></trkpt><trkpt lat="49.37643336472539" lon="2.179060748617576"><ele>142.0</ele><time>2026-05-04T16:27:11Z</time></trkpt><trkpt lat="49.376500403272715" lon="2.179163346635846"><ele>142.0</ele><time>2026-05-04T16:27:12Z</time></trkpt><trkpt lat="49.376567647876996" lon="2.1792349869037793"><ele>142.0</ele><time>2026-05-04T16:27:13Z</time></trkpt><trkpt lat="49.37667869733704" lon="2.1793548942826786"><ele>142.0</ele><time>2026-05-04T16:27:15Z</time></trkpt><trkpt lat="49.37673478743535" lon="2.179420163511803"><ele>142.0</ele><time>2026-05-04T16:27:16Z</time></trkpt><trkpt lat="49.3767909301639" lon="2.179481706544102"><ele>142.0</ele><time>2026-05-04T16:27:17Z</time></trkpt><trkpt lat="49.376845429241655" lon="2.1795406639823516"><ele>142.0</ele><time>2026-05-04T16:27:18Z</time></trkpt><trkpt lat="49.376903364799155" lon="2.179606093415735"><ele>142.0</ele><time>2026-05-04T16:27:19Z</time></trkpt><trkpt lat="49.376962093710574" lon="2.179662178125741"><ele>142.0</ele><time>2026-05-04T16:27:20Z</time></trkpt><trkpt lat="49.377019235309305" lon="2.179712153968359"><ele>142.0</ele><time>2026-05-04T16:27:21Z</time></trkpt><trkpt lat="49.37707468260182" lon="2.1797690703092156"><ele>142.2</ele><time>2026-05-04T16:27:22Z</time></trkpt><trkpt lat="49.377184001530146" lon="2.179868536793394"><ele>142.39999999999998</ele><time>2026-05-04T16:27:24Z</time></trkpt><trkpt lat="49.37726034404103" lon="2.179922872852075"><ele>142.60000000000002</ele><time>2026-05-04T16:27:25Z</time></trkpt><trkpt lat="49.37733814916782" lon="2.179948119400735"><ele>142.8</ele><time>2026-05-04T16:27:26Z</time></trkpt><trkpt lat="49.37740793217424" lon="2.179960180484456"><ele>143.0</ele><time>2026-05-04T16:27:27Z</time></trkpt><trkpt lat="49.37752724570446" lon="2.1799944856125775"><ele>143.0</ele><time>2026-05-04T16:27:29Z</time></trkpt><trkpt lat="49.377600224067415" lon="2.1800117875597165"><ele>143.0</ele><time>2026-05-04T16:27:30Z</time></trkpt><trkpt lat="49.37767521131881" lon="2.1800134523710515"><ele>143.0</ele><time>2026-05-04T16:27:31Z</time></trkpt><trkpt lat="49.37777376650077" lon="2.180011390069325"><ele>143.0</ele><time>2026-05-04T16:27:33Z</time></trkpt><trkpt lat="49.37788497160701" lon="2.1800659326221044"><ele>143.0</ele><time>2026-05-04T16:27:35Z</time></trkpt><trkpt lat="49.37795644246285" lon="2.1801059692216076"><ele>143.0</ele><time>2026-05-04T16:27:37Z</time></trkpt><trkpt lat="49.37787294384678" lon="2.1803098959106664"><ele>143.0</ele><time>2026-05-04T16:29:25Z</time></trkpt><trkpt lat="49.37781096090459" lon="2.180435284963109"><ele>143.0</ele><time>2026-05-04T16:29:27Z</time></trkpt><trkpt lat="49.3777599691346" lon="2.180515979063934"><ele>143.0</ele><time>2026-05-04T16:29:30Z</time></trkpt><trkpt lat="49.37771080482202" lon="2.180597549042529"><ele>143.0</ele><time>2026-05-04T16:30:01Z</time></trkpt><trkpt lat="49.37768417801007" lon="2.1807376865361587"><ele>143.0</ele><time>2026-05-04T16:30:03Z</time></trkpt><trkpt lat="49.37763547452054" lon="2.1808314737065677"><ele>143.0</ele><time>2026-05-04T16:30:05Z</time></trkpt><trkpt lat="49.377603637844956" lon="2.1809232741522"><ele>142.83333333333331</ele><time>2026-05-04T16:30:06Z</time></trkpt><trkpt lat="49.37757341407308" lon="2.181018346274169"><ele>142.66666666666666</ele><time>2026-05-04T16:30:07Z</time></trkpt><trkpt lat="49.377540628572504" lon="2.181114972785532"><ele>142.5</ele><time>2026-05-04T16:30:08Z</time></trkpt><trkpt lat="49.37748280974828" lon="2.1812200683285665"><ele>142.33333333333334</ele><time>2026-05-04T16:30:09Z</time></trkpt><trkpt lat="49.37742775694795" lon="2.1813003639885458"><ele>142.16666666666669</ele><time>2026-05-04T16:30:10Z</time></trkpt><trkpt lat="49.377375605247444" lon="2.1813738513723786"><ele>142.0</ele><time>2026-05-04T16:30:11Z</time></trkpt><trkpt lat="49.37733698584806" lon="2.181477262783756"><ele>142.0</ele><time>2026-05-04T16:30:13Z</time></trkpt><trkpt lat="49.37745176786316" lon="2.181331450237284"><ele>142.0</ele><time>2026-05-04T16:30:30Z</time></trkpt><trkpt lat="49.37751073580854" lon="2.1812144979811454"><ele>142.0</ele><time>2026-05-04T16:30:31Z</time></trkpt><trkpt lat="49.37755397642816" lon="2.1811123118780777"><ele>142.0</ele><time>2026-05-04T16:30:32Z</time></trkpt><trkpt lat="49.37758805213221" lon="2.1810188431674566"><ele>142.0</ele><time>2026-05-04T16:30:33Z</time></trkpt><trkpt lat="49.37763897432561" lon="2.180915218024559"><ele>142.0</ele><time>2026-05-04T16:30:34Z</time></trkpt><trkpt lat="49.377666081769924" lon="2.1808001962142525"><ele>142.0</ele><time>2026-05-04T16:30:35Z</time></trkpt><trkpt lat="49.377685592469106" lon="2.1806957067789257"><ele>142.0</ele><time>2026-05-04T16:30:36Z</time></trkpt><trkpt lat="49.37771581592181" lon="2.1806011460757952"><ele>142.0</ele><time>2026-05-04T16:30:37Z</time></trkpt><trkpt lat="49.37768573091947" lon="2.1805135174276886"><ele>142.0</ele><time>2026-05-04T16:30:43Z</time></trkpt><trkpt lat="49.3776171324666" lon="2.1805733955102795"><ele>142.0</ele><time>2026-05-04T16:30:49Z</time></trkpt><trkpt lat="49.37755395900079" lon="2.1806416378319264"><ele>142.0</ele><time>2026-05-04T16:30:50Z</time></trkpt><trkpt lat="49.377484737408885" lon="2.180691709057457"><ele>142.0</ele><time>2026-05-04T16:30:51Z</time></trkpt><trkpt lat="49.377414390580036" lon="2.1807390805718345"><ele>142.0</ele><time>2026-05-04T16:30:52Z</time></trkpt><trkpt lat="49.37734549951676" lon="2.1807803937467605"><ele>142.0</ele><time>2026-05-04T16:30:53Z</time></trkpt><trkpt lat="49.377281438522736" lon="2.180822632721117"><ele>142.0</ele><time>2026-05-04T16:30:54Z</time></trkpt><trkpt lat="49.377208309175" lon="2.1808555039980213"><ele>142.0</ele><time>2026-05-04T16:30:56Z</time></trkpt><trkpt lat="49.37707645039941" lon="2.1809022271136107"><ele>142.0</ele><time>2026-05-04T16:30:58Z</time></trkpt><trkpt lat="49.37698866596549" lon="2.180939068715468"><ele>141.79999999999998</ele><time>2026-05-04T16:30:59Z</time></trkpt><trkpt lat="49.3768712059593" lon="2.1809634801157114"><ele>141.6</ele><time>2026-05-04T16:31:00Z</time></trkpt><trkpt lat="49.37677270358238" lon="2.1809809950944565"><ele>141.39999999999998</ele><time>2026-05-04T16:31:01Z</time></trkpt><trkpt lat="49.37667430811541" lon="2.181015344217455"><ele>141.2</ele><time>2026-05-04T16:31:03Z</time></trkpt><trkpt lat="49.37660273602432" lon="2.1810205616639857"><ele>141.0</ele><time>2026-05-04T16:31:04Z</time></trkpt><trkpt lat="49.37650706751699" lon="2.1810346823540874"><ele>141.0</ele><time>2026-05-04T16:31:05Z</time></trkpt><trkpt lat="49.376403731183274" lon="2.1810421370769553"><ele>141.0</ele><time>2026-05-04T16:31:06Z</time></trkpt><trkpt lat="49.37630224136039" lon="2.181053448025248"><ele>141.0</ele><time>2026-05-04T16:31:07Z</time></trkpt><trkpt lat="49.37620732067024" lon="2.1810663293859305"><ele>141.0</ele><time>2026-05-04T16:31:08Z</time></trkpt><trkpt lat="49.376119094922274" lon="2.181083285015512"><ele>141.0</ele><time>2026-05-04T16:31:09Z</time></trkpt><trkpt lat="49.37603422211123" lon="2.1810922906880355"><ele>141.4</ele><time>2026-05-04T16:31:10Z</time></trkpt><trkpt lat="49.37595081645537" lon="2.1811092556741487"><ele>141.8</ele><time>2026-05-04T16:31:11Z</time></trkpt><trkpt lat="49.375869768067005" lon="2.1811237942921253"><ele>142.20000000000002</ele><time>2026-05-04T16:31:12Z</time></trkpt><trkpt lat="49.375778546069874" lon="2.181145350370939"><ele>142.6</ele><time>2026-05-04T16:31:13Z</time></trkpt><trkpt lat="49.375666163082435" lon="2.181167438620936"><ele>143.0</ele><time>2026-05-04T16:31:14Z</time></trkpt><trkpt lat="49.375543292834344" lon="2.181183722580807"><ele>143.5</ele><time>2026-05-04T16:31:15Z</time></trkpt><trkpt lat="49.37541811036422" lon="2.181206288565957"><ele>144.0</ele><time>2026-05-04T16:31:16Z</time></trkpt><trkpt lat="49.375292186746755" lon="2.1812283400944397"><ele>144.5</ele><time>2026-05-04T16:31:17Z</time></trkpt><trkpt lat="49.37517324378083" lon="2.1812503014952997"><ele>145.0</ele><time>2026-05-04T16:31:18Z</time></trkpt><trkpt lat="49.37507261950421" lon="2.1812660767224767"><ele>145.0</ele><time>2026-05-04T16:31:19Z</time></trkpt><trkpt lat="49.374985591047675" lon="2.181276398702981"><ele>145.0</ele><time>2026-05-04T16:31:20Z</time></trkpt><trkpt lat="49.374889093169514" lon="2.1812900065808187"><ele>145.0</ele><time>2026-05-04T16:31:21Z</time></trkpt><trkpt lat="49.374780105888306" lon="2.18131236151115"><ele>145.0</ele><time>2026-05-04T16:31:22Z</time></trkpt><trkpt lat="49.374663813115816" lon="2.1813471332547905"><ele>145.0</ele><time>2026-05-04T16:31:23Z</time></trkpt><trkpt lat="49.37456964324613" lon="2.181369833166113"><ele>145.2</ele><time>2026-05-04T16:31:24Z</time></trkpt><trkpt lat="49.37449715667492" lon="2.1813878915807945"><ele>145.4</ele><time>2026-05-04T16:31:25Z</time></trkpt><trkpt lat="49.3743609401343" lon="2.18140180800291"><ele>145.6</ele><time>2026-05-04T16:31:27Z</time></trkpt><trkpt lat="49.37429345217649" lon="2.1814134981126494"><ele>145.8</ele><time>2026-05-04T16:31:28Z</time></trkpt><trkpt lat="49.374214583786724" lon="2.1814358629616173"><ele>146.0</ele><time>2026-05-04T16:31:30Z</time></trkpt><trkpt lat="49.374120263903286" lon="2.181440581943492"><ele>146.0</ele><time>2026-05-04T16:31:32Z</time></trkpt><trkpt lat="49.37404091617101" lon="2.1814507682026196"><ele>146.0</ele><time>2026-05-04T16:31:34Z</time></trkpt><trkpt lat="49.373945963354856" lon="2.1814268828356744"><ele>146.0</ele><time>2026-05-04T16:31:36Z</time></trkpt><trkpt lat="49.3738737743259" lon="2.181460929065928"><ele>146.0</ele><time>2026-05-04T16:31:39Z</time></trkpt><trkpt lat="49.3738041815811" lon="2.1814832667096544"><ele>146.0</ele><time>2026-05-04T16:31:42Z</time></trkpt><trkpt lat="49.37373029494213" lon="2.181511393990763"><ele>146.0</ele><time>2026-05-04T16:31:45Z</time></trkpt><trkpt lat="49.373652364627155" lon="2.1815502951421104"><ele>146.25</ele><time>2026-05-04T16:31:47Z</time></trkpt><trkpt lat="49.37357723192039" lon="2.1815889788050162"><ele>146.5</ele><time>2026-05-04T16:31:49Z</time></trkpt><trkpt lat="49.37346803101333" lon="2.181602094350929"><ele>146.75</ele><time>2026-05-04T16:31:51Z</time></trkpt><trkpt lat="49.37330014823163" lon="2.1815811348649574"><ele>147.0</ele><time>2026-05-04T16:31:52Z</time></trkpt><trkpt lat="49.37319538615177" lon="2.1815931632471535"><ele>147.0</ele><time>2026-05-04T16:31:54Z</time></trkpt><trkpt lat="49.37308105009745" lon="2.181610233010613"><ele>147.0</ele><time>2026-05-04T16:31:56Z</time></trkpt><trkpt lat="49.37298652196878" lon="2.1816364906360297"><ele>147.0</ele><time>2026-05-04T16:31:58Z</time></trkpt><trkpt lat="49.372869494902496" lon="2.1816781307185003"><ele>147.0</ele><time>2026-05-04T16:32:00Z</time></trkpt><trkpt lat="49.37274424767061" lon="2.1816926546754893"><ele>146.83333333333334</ele><time>2026-05-04T16:32:02Z</time></trkpt><trkpt lat="49.37268085579826" lon="2.181719345826506"><ele>146.66666666666666</ele><time>2026-05-04T16:32:03Z</time></trkpt><trkpt lat="49.37260919628805" lon="2.1817418030785225"><ele>146.5</ele><time>2026-05-04T16:32:04Z</time></trkpt><trkpt lat="49.37254576331964" lon="2.1817561293764745"><ele>146.33333333333331</ele><time>2026-05-04T16:32:06Z</time></trkpt><trkpt lat="49.37242675983338" lon="2.181807565242142"><ele>146.16666666666666</ele><time>2026-05-04T16:32:09Z</time></trkpt><trkpt lat="49.372353700006634" lon="2.181792729236202"><ele>146.0</ele><time>2026-05-04T16:32:10Z</time></trkpt><trkpt lat="49.37222770389632" lon="2.1817921282764945"><ele>145.6</ele><time>2026-05-04T16:32:12Z</time></trkpt><trkpt lat="49.37209531490759" lon="2.1817916052079944"><ele>145.2</ele><time>2026-05-04T16:32:14Z</time></trkpt><trkpt lat="49.372000587914854" lon="2.1817770396252314"><ele>144.8</ele><time>2026-05-04T16:32:15Z</time></trkpt><trkpt lat="49.37191789121103" lon="2.181773442479573"><ele>144.4</ele><time>2026-05-04T16:32:16Z</time></trkpt><trkpt lat="49.371808486032805" lon="2.1817706959121375"><ele>144.0</ele><time>2026-05-04T16:32:18Z</time></trkpt><trkpt lat="49.371725294263335" lon="2.181795382861526"><ele>144.0</ele><time>2026-05-04T16:32:20Z</time></trkpt><trkpt lat="49.37159960495168" lon="2.1817576797232334"><ele>144.0</ele><time>2026-05-04T16:32:22Z</time></trkpt><trkpt lat="49.371536813634165" lon="2.1817372702331053"><ele>144.0</ele><time>2026-05-04T16:32:24Z</time></trkpt><trkpt lat="49.37143677813713" lon="2.181710668443633"><ele>144.0</ele><time>2026-05-04T16:32:27Z</time></trkpt><trkpt lat="49.371347142850475" lon="2.1816795742791055"><ele>144.0</ele><time>2026-05-04T16:32:29Z</time></trkpt><trkpt lat="49.37127632185683" lon="2.181693762380632"><ele>143.8</ele><time>2026-05-04T16:32:53Z</time></trkpt><trkpt lat="49.3711854167992" lon="2.1817207671435708"><ele>143.60000000000002</ele><time>2026-05-04T16:32:55Z</time></trkpt><trkpt lat="49.37111967309617" lon="2.181764612192433"><ele>143.4</ele><time>2026-05-04T16:32:56Z</time></trkpt><trkpt lat="49.37102765838419" lon="2.1818472170371352"><ele>143.20000000000002</ele><time>2026-05-04T16:32:57Z</time></trkpt><trkpt lat="49.37092628983464" lon="2.1819363957976727"><ele>143.0</ele><time>2026-05-04T16:32:58Z</time></trkpt><trkpt lat="49.370836120439066" lon="2.1820302939216103"><ele>143.0</ele><time>2026-05-04T16:32:59Z</time></trkpt><trkpt lat="49.37075069590523" lon="2.182126622914372"><ele>143.0</ele><time>2026-05-04T16:33:00Z</time></trkpt><trkpt lat="49.370668864839494" lon="2.182229587070248"><ele>143.0</ele><time>2026-05-04T16:33:01Z</time></trkpt><trkpt lat="49.37058567497629" lon="2.1823444772858984"><ele>143.0</ele><time>2026-05-04T16:33:02Z</time></trkpt><trkpt lat="49.3705070066006" lon="2.182460436578248"><ele>143.0</ele><time>2026-05-04T16:33:03Z</time></trkpt><trkpt lat="49.37043398638167" lon="2.1825719476149845"><ele>142.66666666666666</ele><time>2026-05-04T16:33:04Z</time></trkpt><trkpt lat="49.37036875183211" lon="2.1826671295269824"><ele>142.33333333333331</ele><time>2026-05-04T16:33:05Z</time></trkpt><trkpt lat="49.370308983811746" lon="2.1827620486451775"><ele>142.0</ele><time>2026-05-04T16:33:06Z</time></trkpt><trkpt lat="49.370249983654894" lon="2.182869481236985"><ele>141.66666666666666</ele><time>2026-05-04T16:33:07Z</time></trkpt><trkpt lat="49.37020214530977" lon="2.182971323608544"><ele>141.33333333333334</ele><time>2026-05-04T16:33:08Z</time></trkpt><trkpt lat="49.37015748400347" lon="2.183082545028246"><ele>141.0</ele><time>2026-05-04T16:33:09Z</time></trkpt><trkpt lat="49.370113175306955" lon="2.1831962283626605"><ele>140.71428571428572</ele><time>2026-05-04T16:33:10Z</time></trkpt><trkpt lat="49.37007666988058" lon="2.1833015963109115"><ele>140.42857142857142</ele><time>2026-05-04T16:33:11Z</time></trkpt><trkpt lat="49.370046013817976" lon="2.1833950239636675"><ele>140.14285714285714</ele><time>2026-05-04T16:33:12Z</time></trkpt><trkpt lat="49.37001815620425" lon="2.1834862259895145"><ele>139.85714285714286</ele><time>2026-05-04T16:33:13Z</time></trkpt><trkpt lat="49.36998821669574" lon="2.183585704877722"><ele>139.57142857142858</ele><time>2026-05-04T16:33:14Z</time></trkpt><trkpt lat="49.369955496283914" lon="2.1837032933397755"><ele>139.28571428571428</ele><time>2026-05-04T16:33:15Z</time></trkpt><trkpt lat="49.369931235168" lon="2.1838206052956983"><ele>139.0</ele><time>2026-05-04T16:33:16Z</time></trkpt><trkpt lat="49.36991375838343" lon="2.183932340293025"><ele>138.66666666666669</ele><time>2026-05-04T16:33:17Z</time></trkpt><trkpt lat="49.3698923358411" lon="2.1840515122369024"><ele>138.33333333333334</ele><time>2026-05-04T16:33:18Z</time></trkpt><trkpt lat="49.36986465410812" lon="2.184174269721077"><ele>138.0</ele><time>2026-05-04T16:33:19Z</time></trkpt><trkpt lat="49.36983984014917" lon="2.1842691060498893"><ele>137.66666666666666</ele><time>2026-05-04T16:33:20Z</time></trkpt><trkpt lat="49.369813230256355" lon="2.1843659654230603"><ele>137.33333333333331</ele><time>2026-05-04T16:33:21Z</time></trkpt><trkpt lat="49.36979046641316" lon="2.184473105184551"><ele>137.0</ele><time>2026-05-04T16:33:22Z</time></trkpt><trkpt lat="49.36976107540345" lon="2.1846059772654143"><ele>137.0</ele><time>2026-05-04T16:33:23Z</time></trkpt><trkpt lat="49.36976151415035" lon="2.1847459852781155"><ele>137.0</ele><time>2026-05-04T16:33:24Z</time></trkpt><trkpt lat="49.36975632704116" lon="2.1848510142851274"><ele>137.0</ele><time>2026-05-04T16:33:25Z</time></trkpt><trkpt lat="49.36973152897316" lon="2.185035002341135"><ele>137.0</ele><time>2026-05-04T16:33:27Z</time></trkpt><trkpt lat="49.36967797832661" lon="2.1852028137108386"><ele>137.0</ele><time>2026-05-04T16:33:29Z</time></trkpt><trkpt lat="49.36964627765669" lon="2.185293722295909"><ele>137.0</ele><time>2026-05-04T16:33:30Z</time></trkpt><trkpt lat="49.369587508009104" lon="2.1853899574484785"><ele>137.0</ele><time>2026-05-04T16:33:31Z</time></trkpt><trkpt lat="49.369544835285616" lon="2.185486496285079"><ele>137.0</ele><time>2026-05-04T16:33:32Z</time></trkpt><trkpt lat="49.36950913295719" lon="2.1855860238295413"><ele>137.0</ele><time>2026-05-04T16:33:33Z</time></trkpt><trkpt lat="49.36946796853605" lon="2.1856846866077726"><ele>137.0</ele><time>2026-05-04T16:33:34Z</time></trkpt><trkpt lat="49.36939528993833" lon="2.185896378479076"><ele>135.83333333333331</ele><time>2026-05-04T16:33:36Z</time></trkpt><trkpt lat="49.36936477617893" lon="2.1860093820047544"><ele>134.66666666666666</ele><time>2026-05-04T16:33:37Z</time></trkpt><trkpt lat="49.36932007982602" lon="2.186107825131601"><ele>133.5</ele><time>2026-05-04T16:33:38Z</time></trkpt><trkpt lat="49.36931382720888" lon="2.1862282955761603"><ele>132.33333333333334</ele><time>2026-05-04T16:33:39Z</time></trkpt><trkpt lat="49.36926460019305" lon="2.1863161196091045"><ele>131.16666666666669</ele><time>2026-05-04T16:33:40Z</time></trkpt><trkpt lat="49.369220493306365" lon="2.1864758376644895"><ele>130.0</ele><time>2026-05-04T16:33:42Z</time></trkpt><trkpt lat="49.36918136905568" lon="2.1866165802893796"><ele>128.5</ele><time>2026-05-04T16:33:44Z</time></trkpt><trkpt lat="49.36916728188726" lon="2.186823884492956"><ele>127.0</ele><time>2026-05-04T16:33:46Z</time></trkpt><trkpt lat="49.36911337546437" lon="2.187003164385854"><ele>125.5</ele><time>2026-05-04T16:33:48Z</time></trkpt><trkpt lat="49.369082072049935" lon="2.1871637565705533"><ele>124.0</ele><time>2026-05-04T16:33:50Z</time></trkpt><trkpt lat="49.369085625098904" lon="2.1873548203054862"><ele>124.0</ele><time>2026-05-04T16:33:52Z</time></trkpt><trkpt lat="49.36906329448718" lon="2.187499920079542"><ele>124.0</ele><time>2026-05-04T16:33:53Z</time></trkpt><trkpt lat="49.369057082362566" lon="2.187637310555653"><ele>124.0</ele><time>2026-05-04T16:33:55Z</time></trkpt><trkpt lat="49.36903235378332" lon="2.1877936152529154"><ele>124.0</ele><time>2026-05-04T16:33:57Z</time></trkpt><trkpt lat="49.36901982332588" lon="2.187942294098705"><ele>124.0</ele><time>2026-05-04T16:33:58Z</time></trkpt><trkpt lat="49.368995789559705" lon="2.1880515931226148"><ele>124.0</ele><time>2026-05-04T16:33:59Z</time></trkpt><trkpt lat="49.36896752421191" lon="2.188143794637528"><ele>124.0</ele><time>2026-05-04T16:34:00Z</time></trkpt><trkpt lat="49.36892320696573" lon="2.188285118449576"><ele>125.0</ele><time>2026-05-04T16:34:02Z</time></trkpt></trkseg></trk></gpx>